Bookmark and Share
Track history (hours):
 

Otagawa

Last reported at 2014-Apr-19 07:25 UTC. Time now 2014-Apr-19 12:03 UTC.
Position N 34°45' E 139°06'.

Length 70 m; draft 4.6 m.

Type: Ship. MMSI: 431001328.

NotesDate/timePositionNaut miles runAvg speedWind from/ knotsBaromVisibWave heightAir tempDewpointWater temp
2014-Apr-19 07:25N 34°45' E 139°06'2010.3
2014-Apr-19 05:29N 34°58' E 139°24'1010.6
2014-Apr-19 04:33N 35°03' E 139°34'1111.1
2014-Apr-19 03:33N 35°10' E 139°44'1110.6
2014-Apr-19 02:33N 35°20' E 139°42'6 6.1
2014-Apr-19 01:33N 35°26' E 139°41'0 0.0
2014-Apr-19 00:33N 35°26' E 139°41'0 0.0
2014-Apr-18 23:33N 35°26' E 139°41'3 2.9
2014-Apr-18 22:33N 35°29' E 139°39'0 0.0
2014-Apr-18 21:33N 35°29' E 139°39'0 0.0
2014-Apr-18 20:32N 35°29' E 139°39'0 0.0
2014-Apr-18 19:32N 35°29' E 139°39'0 0.0
2014-Apr-18 18:32N 35°29' E 139°39'0 0.0
2014-Apr-18 17:32N 35°29' E 139°39'0 0.0
2014-Apr-18 16:32N 35°29' E 139°39'0 0.0
2014-Apr-18 15:32N 35°29' E 139°39'0 0.0
2014-Apr-18 14:32N 35°29' E 139°39'0 0.0
2014-Apr-18 13:32N 35°29' E 139°39'0 0.0
2014-Apr-18 12:32N 35°29' E 139°39'0 0.0
2014-Apr-18 11:32N 35°29' E 139°39'0 0.0
2014-Apr-18 10:29N 35°29' E 139°39'0 0.0
2014-Apr-18 09:32N 35°29' E 139°39'0 0.0
2014-Apr-18 08:32N 35°29' E 139°39'0 0.0
2014-Apr-18 07:29N 35°29' E 139°39'0 0.0
2014-Apr-18 06:29N 35°29' E 139°39'0 0.0
2014-Apr-18 05:32N 35°29' E 139°39'0 0.0
2014-Apr-18 04:32N 35°29' E 139°39'0 0.0
2014-Apr-18 03:32N 35°29' E 139°39'0 0.2
2014-Apr-18 02:33N 35°29' E 139°39'8 8.3
2014-Apr-18 01:33N 35°30' E 139°49'6 6.3
2014-Apr-18 00:33N 35°36' E 139°46'0 0.0
2014-Apr-17 23:33N 35°36' E 139°46'4 3.6
2014-Apr-17 22:33N 35°34' E 139°50'1 0.6
2014-Apr-17 21:33N 35°34' E 139°50'0 0.0
2014-Apr-17 20:31N 35°34' E 139°51'0 0.0
2014-Apr-17 19:31N 35°34' E 139°51'2 1.9
2014-Apr-17 18:33N 35°32' E 139°52'10 9.9
2014-Apr-17 17:34N 35°23' E 139°46'10 9.9
2014-Apr-17 16:34N 35°14' E 139°47'10 9.7
2014-Apr-17 15:34N 35°05' E 139°42'1010.4
2014-Apr-17 14:34N 34°58' E 139°33'26 1.4
2014-Apr-16 20:14N 34°45' E 139°05'811.4
2014-Apr-16 19:33N 34°52' E 139°10'1110.8
2014-Apr-16 18:31N 34°58' E 139°21'1010.9
2014-Apr-16 17:34N 35°03' E 139°32'1110.6
2014-Apr-16 16:34N 35°09' E 139°43'9 9.2
2014-Apr-16 15:34N 35°18' E 139°44'9 8.5
2014-Apr-16 14:34N 35°26' E 139°41'0 0.1
2014-Apr-16 13:33N 35°26' E 139°41'0 0.0
2014-Apr-16 12:34N 35°26' E 139°41'2 2.0
2014-Apr-16 11:34N 35°25' E 139°42'1010.3
2014-Apr-16 10:34N 35°15' E 139°47'1110.5
2014-Apr-16 09:34N 35°05' E 139°43'1211.4
2014-Apr-16 08:33N 34°58' E 139°32'50 6.7
2014-Apr-16 01:03N 35°02' E 138°30'0 0.0
2014-Apr-15 20:33N 35°02' E 138°30'179 5.0
2014-Apr-14 08:33N 34°19' E 134°59'10 9.8
2014-Apr-14 07:33N 34°27' E 135°06'1010.2
2014-Apr-14 06:33N 34°34' E 135°15'7 7.0
2014-Apr-14 05:33N 34°41' E 135°17'4 0.6
2014-Apr-13 22:33N 34°37' E 135°18'8 7.8
2014-Apr-13 21:33N 34°31' E 135°13'1010.3
2014-Apr-13 20:33N 34°23' E 135°05'10 9.7
2014-Apr-13 19:33N 34°14' E 134°60'1010.0
2014-Apr-13 18:33N 34°04' E 135°00'213 8.8
2014-Apr-12 18:26N 34°47' E 139°13'1111.0
2014-Apr-12 17:26N 34°54' E 139°24'1011.2
2014-Apr-12 16:33N 35°01' E 139°33'1111.4
2014-Apr-12 15:33N 35°08' E 139°43'10 9.9
2014-Apr-12 14:33N 35°18' E 139°44'9 8.8
2014-Apr-12 13:34N 35°26' E 139°41'0 0.1
2014-Apr-12 12:33N 35°26' E 139°41'0 0.0
2014-Apr-12 11:33N 35°26' E 139°41'0 0.0
2014-Apr-12 10:33N 35°26' E 139°41'1 0.8
2014-Apr-12 09:33N 35°26' E 139°42'0 0.3
2014-Apr-12 08:32N 35°26' E 139°42'0 0.0
2014-Apr-12 07:32N 35°26' E 139°42'0 0.1
2014-Apr-12 06:32N 35°26' E 139°42'0 0.0
2014-Apr-12 05:32N 35°26' E 139°42'0 0.0
2014-Apr-12 04:32N 35°26' E 139°42'0 0.0
2014-Apr-12 03:32N 35°26' E 139°42'0 0.0
2014-Apr-12 02:32N 35°26' E 139°42'0 0.1
2014-Apr-12 01:32N 35°26' E 139°42'10 9.8
2014-Apr-12 00:33N 35°33' E 139°50'5 4.7
2014-Apr-11 23:33N 35°36' E 139°46'1 0.7
2014-Apr-11 22:33N 35°35' E 139°47'8 8.2
2014-Apr-11 21:33N 35°28' E 139°50'10 9.9
2014-Apr-11 20:33N 35°19' E 139°44'9 9.4
2014-Apr-11 19:33N 35°10' E 139°46'13 0.5
2014-Apr-10 16:19N 35°03' E 139°33'911.8
2014-Apr-10 15:33N 35°08' E 139°42'10 9.7
2014-Apr-10 14:33N 35°18' E 139°44'9 9.1
2014-Apr-10 13:33N 35°27' E 139°47'8 8.3
2014-Apr-10 12:33N 35°35' E 139°48'2 1.5
2014-Apr-10 11:33N 35°36' E 139°46'1 0.9
2014-Apr-10 10:33N 35°37' E 139°47'3 2.7
2014-Apr-10 09:33N 35°34' E 139°48'5 5.0
2014-Apr-10 08:33N 35°30' E 139°46'1 1.1
2014-Apr-10 07:33N 35°29' E 139°45'0 0.0
2014-Apr-10 06:33N 35°29' E 139°45'0 0.0
2014-Apr-10 05:33N 35°29' E 139°45'3 3.0
2014-Apr-10 04:33N 35°26' E 139°46'1110.1
2014-Apr-10 03:31N 35°16' E 139°46'1010.1
2014-Apr-10 02:32N 35°06' E 139°44'  

Dump ship's entire track history

sailing weather and tide predictions

Otagawa — JD3046 — position and weather